createdAt,value
2018-12-27T00:00:25.806Z,37.58
2018-12-27T00:01:01.249Z,35.45
2018-12-27T00:01:36.675Z,33.20
2018-12-27T00:02:12.107Z,33.60
2018-12-27T00:02:54.626Z,28.35
2018-12-27T00:03:24.586Z,26.52
2018-12-27T00:04:00.014Z,36.83
2018-12-27T00:04:35.706Z,32.30
2018-12-27T00:05:11.086Z,33.02
2018-12-27T00:05:46.577Z,31.42
2018-12-27T00:06:22.345Z,34.30
2018-12-27T00:06:57.795Z,31.97
2018-12-27T00:07:33.333Z,34.92
2018-12-27T00:08:08.671Z,37.42
2018-12-27T00:08:44.202Z,33.13
2018-12-27T00:09:19.731Z,36.15
2018-12-27T00:09:55.244Z,33.80
2018-12-27T00:10:30.779Z,31.05
2018-12-27T00:11:06.240Z,30.00
2018-12-27T00:11:41.764Z,30.10
2018-12-27T00:12:17.194Z,26.20
2018-12-27T00:12:52.633Z,33.85
2018-12-27T00:13:28.079Z,32.45
2018-12-27T00:14:04.074Z,23.90
2018-12-27T00:14:39.603Z,28.80
2018-12-27T00:15:15.139Z,28.00
2018-12-27T00:15:50.599Z,27.58
2018-12-27T00:16:26.143Z,29.63
2018-12-27T00:17:01.553Z,32.42
2018-12-27T00:17:37.089Z,28.98
2018-12-27T00:18:12.518Z,29.00
2018-12-27T00:18:48.134Z,25.72
2018-12-27T00:19:23.680Z,30.00
2018-12-27T00:19:59.130Z,31.97
2018-12-27T00:20:34.755Z,28.35
2018-12-27T00:21:10.305Z,27.32
2018-12-27T00:21:45.622Z,29.30
2018-12-27T00:22:21.378Z,33.83
2018-12-27T00:22:56.899Z,22.40
2018-12-27T00:23:32.787Z,29.50
2018-12-27T00:24:08.330Z,28.07
2018-12-27T00:24:43.788Z,28.95
2018-12-27T00:25:20.451Z,27.82
2018-12-27T00:25:56.254Z,31.95
2018-12-27T00:26:31.730Z,27.73
2018-12-27T00:27:07.163Z,30.40
2018-12-27T00:27:42.711Z,29.70
2018-12-27T00:28:18.425Z,27.73
2018-12-27T00:28:53.845Z,31.80
2018-12-27T00:29:29.298Z,30.95
2018-12-27T00:30:04.930Z,33.30
2018-12-27T00:30:40.529Z,32.85
2018-12-27T00:31:16.039Z,29.25
2018-12-27T00:31:51.699Z,18.98
2018-12-27T00:32:27.384Z,29.75
2018-12-27T00:33:03.261Z,30.12
2018-12-27T00:33:39.200Z,30.45
2018-12-27T00:34:14.836Z,33.98
2018-12-27T00:34:50.461Z,27.98
2018-12-27T00:35:26.118Z,38.70
2018-12-27T00:36:01.635Z,35.35
2018-12-27T00:36:37.314Z,39.42
2018-12-27T00:37:12.795Z,31.52
2018-12-27T00:37:48.486Z,22.52
2018-12-27T00:38:24.388Z,35.00
2018-12-27T00:39:00.128Z,37.38
2018-12-27T00:39:35.877Z,36.03
2018-12-27T00:40:11.506Z,34.90
2018-12-27T00:40:47.083Z,35.70
2018-12-27T00:41:22.694Z,35.50
2018-12-27T00:41:58.330Z,34.85
2018-12-27T00:42:34.244Z,35.88
2018-12-27T00:43:09.790Z,38.38
2018-12-27T00:43:45.402Z,35.83
2018-12-27T00:44:21.266Z,35.28
2018-12-27T00:44:57.342Z,39.13
2018-12-27T00:45:32.884Z,38.40
2018-12-27T00:46:08.373Z,37.25
2018-12-27T00:46:43.902Z,41.33
2018-12-27T00:47:19.442Z,37.88
2018-12-27T00:47:54.977Z,40.78
2018-12-27T00:48:30.590Z,38.70
2018-12-27T00:49:06.244Z,40.73
2018-12-27T00:49:42.100Z,46.48
2018-12-27T00:50:17.837Z,40.90
2018-12-27T00:50:53.343Z,38.83
2018-12-27T00:51:28.882Z,33.75
2018-12-27T00:52:04.666Z,44.13
2018-12-27T00:52:40.148Z,42.20
2018-12-27T00:53:15.710Z,49.05
2018-12-27T00:53:51.311Z,44.38
2018-12-27T00:54:27.126Z,45.23
2018-12-27T00:55:02.774Z,43.80
2018-12-27T00:55:38.436Z,46.30
2018-12-27T00:56:14.056Z,50.65
2018-12-27T00:56:49.577Z,43.25
2018-12-27T00:57:25.160Z,44.25
2018-12-27T00:58:00.655Z,48.45
2018-12-27T00:58:36.315Z,49.35
2018-12-27T00:59:11.841Z,47.67
2018-12-27T00:59:47.574Z,41.30
2018-12-27T01:00:23.284Z,42.98
2018-12-27T01:00:59.056Z,43.13
2018-12-27T01:01:35.613Z,47.50
2018-12-27T01:02:11.104Z,43.20
2018-12-27T01:02:46.540Z,49.60
2018-12-27T01:03:22.310Z,40.25
2018-12-27T01:03:57.995Z,48.83
2018-12-27T01:04:33.573Z,55.85
2018-12-27T01:05:10.316Z,50.00
2018-12-27T01:05:46.114Z,50.03
2018-12-27T01:06:21.622Z,51.37
2018-12-27T01:06:57.139Z,49.35
2018-12-27T01:07:32.674Z,46.70
2018-12-27T01:08:08.317Z,49.20
2018-12-27T01:08:43.931Z,50.05
2018-12-27T01:09:19.686Z,47.70
2018-12-27T01:09:55.312Z,49.60
2018-12-27T01:10:31.279Z,45.88
2018-12-27T01:11:07.215Z,46.88
2018-12-27T01:11:42.730Z,53.20
2018-12-27T01:12:18.243Z,50.20
2018-12-27T01:12:53.748Z,45.30
2018-12-27T01:13:29.687Z,57.35
2018-12-27T01:14:05.278Z,42.98
2018-12-27T01:14:40.914Z,52.95
2018-12-27T01:15:16.454Z,55.30
2018-12-27T01:15:51.983Z,60.50
2018-12-27T01:16:28.132Z,55.98
2018-12-27T01:17:03.867Z,54.75
2018-12-27T01:17:39.915Z,56.48
2018-12-27T01:18:15.605Z,55.48
2018-12-27T01:18:51.084Z,56.02
2018-12-27T01:19:26.703Z,58.28
2018-12-27T01:20:02.333Z,44.50
2018-12-27T01:20:38.143Z,50.65
2018-12-27T01:21:13.839Z,55.60
2018-12-27T01:21:49.453Z,52.60
2018-12-27T01:22:25.126Z,57.35
2018-12-27T01:23:01.174Z,59.00
2018-12-27T01:23:36.703Z,54.35
2018-12-27T01:24:12.562Z,53.28
2018-12-27T01:24:48.331Z,53.17
2018-12-27T01:25:23.990Z,56.00
2018-12-27T01:25:59.726Z,56.95
2018-12-27T01:26:35.375Z,56.83
2018-12-27T01:27:10.899Z,56.18
2018-12-27T01:27:46.621Z,58.40
2018-12-27T01:28:22.175Z,53.73
2018-12-27T01:28:57.660Z,58.95
2018-12-27T01:29:33.250Z,52.43
2018-12-27T01:30:08.913Z,58.42
2018-12-27T01:30:44.366Z,58.52
2018-12-27T01:31:19.911Z,50.80
2018-12-27T01:31:55.567Z,56.55
2018-12-27T01:32:31.126Z,48.83
2018-12-27T01:33:06.610Z,56.53
2018-12-27T01:33:42.287Z,49.67
2018-12-27T01:34:17.926Z,57.73
2018-12-27T01:34:53.623Z,55.12
2018-12-27T01:35:29.191Z,60.70
2018-12-27T01:36:04.691Z,62.70
2018-12-27T01:36:40.211Z,57.48
2018-12-27T01:37:15.879Z,56.48
2018-12-27T01:37:51.398Z,58.15
2018-12-27T01:38:27.087Z,67.82
2018-12-27T01:39:02.664Z,65.00
2018-12-27T01:39:38.174Z,62.75
2018-12-27T01:40:13.745Z,59.48
2018-12-27T01:40:49.390Z,66.65
2018-12-27T01:41:24.907Z,59.03
2018-12-27T01:42:00.409Z,48.63
2018-12-27T01:42:36.131Z,53.38
2018-12-27T01:43:11.653Z,61.05
2018-12-27T01:43:47.204Z,55.83
2018-12-27T01:44:22.766Z,49.63
2018-12-27T01:44:58.385Z,54.35
2018-12-27T01:45:33.916Z,57.90
2018-12-27T01:46:09.886Z,61.37
2018-12-27T01:46:45.531Z,59.27
2018-12-27T01:47:21.036Z,61.63
2018-12-27T01:47:56.709Z,60.90
2018-12-27T01:48:32.608Z,54.63
2018-12-27T01:49:08.054Z,62.27
2018-12-27T01:49:43.589Z,62.43
2018-12-27T01:50:19.359Z,63.52
2018-12-27T01:50:54.974Z,67.92
2018-12-27T01:51:30.461Z,51.58
2018-12-27T01:52:05.936Z,61.08
2018-12-27T01:52:41.477Z,55.45
2018-12-27T01:53:17.222Z,62.27
2018-12-27T01:53:52.842Z,59.63
2018-12-27T01:54:28.490Z,59.80
2018-12-27T01:55:04.291Z,59.83
2018-12-27T01:55:39.843Z,58.33
2018-12-27T01:56:15.515Z,56.92
2018-12-27T01:56:50.994Z,60.63
2018-12-27T01:57:27.183Z,53.80
2018-12-27T01:58:02.869Z,57.53
2018-12-27T01:58:38.327Z,59.38
2018-12-27T01:59:13.961Z,55.43
2018-12-27T01:59:49.495Z,58.52
2018-12-27T02:00:25.787Z,56.37
2018-12-27T02:01:01.266Z,68.00
2018-12-27T02:01:36.907Z,61.33
2018-12-27T02:02:12.667Z,60.00
2018-12-27T02:02:48.165Z,63.98
2018-12-27T02:03:26.624Z,62.08
2018-12-27T02:04:02.308Z,55.98
2018-12-27T02:04:37.965Z,57.10
2018-12-27T02:05:14.025Z,48.83
2018-12-27T02:05:49.549Z,53.33
2018-12-27T02:06:25.447Z,53.23
2018-12-27T02:07:00.986Z,58.48
2018-12-27T02:07:36.756Z,63.28
2018-12-27T02:08:12.393Z,58.90
2018-12-27T02:08:48.011Z,62.45
2018-12-27T02:09:23.650Z,59.35
2018-12-27T02:09:59.226Z,62.95
2018-12-27T02:10:34.721Z,56.48
2018-12-27T02:11:10.258Z,60.52
2018-12-27T02:11:45.823Z,55.35
2018-12-27T02:12:21.936Z,61.80
2018-12-27T02:12:57.680Z,55.43
2018-12-27T02:13:33.226Z,53.42
2018-12-27T02:14:08.729Z,52.43
2018-12-27T02:14:44.210Z,54.18
2018-12-27T02:15:19.718Z,50.60
2018-12-27T02:15:55.211Z,50.05
2018-12-27T02:16:30.841Z,55.50
2018-12-27T02:17:06.534Z,58.40
2018-12-27T02:17:42.413Z,51.42
2018-12-27T02:18:18.031Z,57.70
2018-12-27T02:18:53.642Z,53.33
2018-12-27T02:19:29.133Z,59.73
2018-12-27T02:20:04.666Z,64.87
2018-12-27T02:20:40.394Z,63.55
2018-12-27T02:21:15.949Z,64.32
2018-12-27T02:21:51.370Z,73.90
2018-12-27T02:22:27.015Z,64.60
2018-12-27T02:23:03.371Z,59.05
2018-12-27T02:23:39.148Z,55.67
2018-12-27T02:24:14.735Z,63.00
2018-12-27T02:24:50.472Z,60.67
2018-12-27T02:25:26.058Z,60.92
2018-12-27T02:26:01.580Z,66.92
2018-12-27T02:26:37.094Z,67.70
2018-12-27T02:27:12.593Z,64.60
2018-12-27T02:27:48.242Z,67.90
2018-12-27T02:28:23.776Z,59.13
2018-12-27T02:28:59.410Z,71.85
2018-12-27T02:29:34.970Z,70.55
2018-12-27T02:30:10.596Z,70.50
2018-12-27T02:30:46.203Z,68.05
2018-12-27T02:31:21.706Z,77.22
2018-12-27T02:31:57.191Z,68.17
2018-12-27T02:32:32.764Z,68.10
2018-12-27T02:33:08.351Z,71.55
2018-12-27T02:33:44.041Z,73.17
2018-12-27T02:34:19.543Z,67.12
2018-12-27T02:34:55.127Z,68.28
2018-12-27T02:35:30.782Z,75.45
2018-12-27T02:36:06.278Z,66.40
2018-12-27T02:36:41.730Z,53.48
2018-12-27T02:37:17.293Z,69.72
2018-12-27T02:37:53.334Z,64.40
2018-12-27T02:38:28.970Z,73.15
2018-12-27T02:39:05.150Z,69.47
2018-12-27T02:39:40.755Z,64.07
2018-12-27T02:40:16.381Z,75.15
2018-12-27T02:40:51.951Z,65.78
2018-12-27T02:41:27.656Z,78.60
2018-12-27T02:42:03.166Z,71.42
2018-12-27T02:42:38.838Z,70.97
2018-12-27T02:43:14.467Z,71.95
2018-12-27T02:43:50.159Z,62.03
2018-12-27T02:44:25.758Z,68.50
2018-12-27T02:45:01.243Z,63.85
2018-12-27T02:45:37.196Z,69.70
2018-12-27T02:46:12.641Z,66.72
2018-12-27T02:46:48.246Z,66.47
2018-12-27T02:47:23.747Z,68.10
2018-12-27T02:47:59.366Z,71.95
2018-12-27T02:48:34.850Z,73.28
2018-12-27T02:49:10.820Z,72.30
2018-12-27T02:49:46.456Z,76.72
2018-12-27T02:50:22.105Z,77.95
2018-12-27T02:50:58.956Z,67.17
2018-12-27T02:51:34.487Z,72.85
2018-12-27T02:52:10.097Z,67.27
2018-12-27T02:52:45.761Z,72.62
2018-12-27T02:53:21.268Z,69.37
2018-12-27T02:53:56.902Z,69.17
2018-12-27T02:54:32.946Z,72.75
2018-12-27T02:55:08.534Z,68.12
2018-12-27T02:55:44.053Z,66.90
2018-12-27T02:56:19.564Z,72.75
2018-12-27T02:56:55.507Z,68.55
2018-12-27T02:57:31.093Z,71.75
2018-12-27T02:58:06.562Z,70.75
2018-12-27T02:58:42.319Z,69.37
2018-12-27T02:59:17.848Z,73.72
2018-12-27T02:59:53.577Z,77.12
2018-12-27T03:00:29.830Z,63.23
2018-12-27T03:01:05.343Z,64.90
2018-12-27T03:01:40.963Z,65.32
2018-12-27T03:02:16.430Z,66.33
2018-12-27T03:02:52.557Z,69.42
2018-12-27T03:03:28.114Z,66.28
2018-12-27T03:04:03.742Z,70.10
2018-12-27T03:04:39.321Z,69.15
2018-12-27T03:05:14.755Z,69.35
2018-12-27T03:05:50.277Z,70.83
2018-12-27T03:06:25.910Z,75.20
2018-12-27T03:07:01.378Z,67.37
2018-12-27T03:07:36.925Z,68.97
2018-12-27T03:08:12.523Z,73.05
2018-12-27T03:08:48.019Z,69.77
2018-12-27T03:09:23.659Z,58.42
2018-12-27T03:09:59.243Z,64.72
2018-12-27T03:10:35.097Z,76.62
2018-12-27T03:11:10.790Z,63.33
2018-12-27T03:11:46.390Z,73.37
2018-12-27T03:12:22.026Z,70.80
2018-12-27T03:12:57.686Z,64.97
2018-12-27T03:13:33.258Z,75.90
2018-12-27T03:14:08.859Z,76.77
2018-12-27T03:14:44.427Z,74.58
2018-12-27T03:15:19.977Z,77.35
2018-12-27T03:15:55.522Z,71.15
2018-12-27T03:16:31.100Z,77.58
2018-12-27T03:17:06.699Z,81.08
2018-12-27T03:17:42.733Z,74.20
2018-12-27T03:18:18.279Z,68.37
2018-12-27T03:18:53.869Z,68.87
2018-12-27T03:19:29.432Z,75.40
2018-12-27T03:20:05.283Z,73.40
2018-12-27T03:20:40.927Z,68.33
2018-12-27T03:21:16.535Z,73.42
2018-12-27T03:21:52.086Z,82.47
2018-12-27T03:22:27.615Z,68.28
2018-12-27T03:23:03.187Z,71.62
2018-12-27T03:23:38.666Z,73.70
2018-12-27T03:24:14.528Z,65.87
2018-12-27T03:24:50.088Z,75.20
2018-12-27T03:25:25.667Z,68.83
2018-12-27T03:26:01.323Z,79.10
2018-12-27T03:26:36.768Z,72.17
2018-12-27T03:27:12.392Z,65.72
2018-12-27T03:27:48.020Z,76.95
2018-12-27T03:28:23.679Z,71.57
2018-12-27T03:28:59.183Z,63.30
2018-12-27T03:29:34.750Z,72.78
2018-12-27T03:30:10.513Z,79.97
2018-12-27T03:30:46.000Z,81.30
2018-12-27T03:31:21.523Z,67.50
2018-12-27T03:31:58.158Z,70.45
2018-12-27T03:32:33.770Z,67.87
2018-12-27T03:33:09.575Z,65.28
2018-12-27T03:33:52.491Z,68.07
2018-12-27T03:34:22.444Z,70.42
2018-12-27T03:34:57.878Z,77.72
2018-12-27T03:35:33.511Z,74.42
2018-12-27T03:36:09.217Z,74.70
2018-12-27T03:36:44.812Z,80.87
2018-12-27T03:37:20.426Z,84.22
2018-12-27T03:37:56.043Z,86.32
2018-12-27T03:38:31.707Z,75.50
2018-12-27T03:39:08.178Z,84.90
2018-12-27T03:39:43.836Z,85.40
2018-12-27T03:40:19.436Z,79.32
2018-12-27T03:40:55.471Z,81.55
2018-12-27T03:41:31.204Z,87.40
2018-12-27T03:42:06.756Z,89.03
2018-12-27T03:42:42.335Z,85.80
2018-12-27T03:43:17.886Z,99.85
2018-12-27T03:43:53.401Z,76.77
2018-12-27T03:44:28.896Z,86.20
2018-12-27T03:45:04.433Z,96.75
2018-12-27T03:45:39.939Z,88.50
2018-12-27T03:46:15.475Z,97.10
2018-12-27T03:46:51.042Z,83.75
2018-12-27T03:47:26.544Z,96.72
2018-12-27T03:48:02.201Z,95.90
2018-12-27T03:48:37.718Z,97.78
2018-12-27T03:49:13.331Z,95.07
2018-12-27T03:49:48.881Z,94.42
2018-12-27T03:50:24.503Z,90.72
2018-12-27T03:50:59.934Z,96.92
2018-12-27T03:51:35.485Z,93.65
2018-12-27T03:52:11.019Z,95.47
2018-12-27T03:52:46.682Z,95.70
2018-12-27T03:53:22.267Z,97.92
2018-12-27T03:53:58.288Z,85.03
2018-12-27T03:54:33.773Z,92.40
2018-12-27T03:55:09.307Z,93.52
2018-12-27T03:55:45.041Z,84.52
2018-12-27T03:56:20.691Z,98.12
2018-12-27T03:56:56.280Z,94.58
2018-12-27T03:57:32.160Z,97.30
2018-12-27T03:58:07.675Z,99.95
2018-12-27T03:58:43.299Z,103.00
2018-12-27T03:59:18.835Z,103.83
2018-12-27T03:59:54.452Z,99.70
2018-12-27T04:00:30.111Z,101.47
2018-12-27T04:01:06.166Z,83.25
2018-12-27T04:01:41.671Z,93.60
2018-12-27T04:02:17.223Z,102.45
2018-12-27T04:02:53.271Z,90.12
2018-12-27T04:03:28.923Z,99.22
2018-12-27T04:04:04.627Z,94.58
2018-12-27T04:04:40.248Z,94.42
2018-12-27T04:05:15.853Z,89.67
2018-12-27T04:05:51.670Z,96.63
2018-12-27T04:06:27.288Z,81.63
2018-12-27T04:07:02.822Z,94.72
2018-12-27T04:07:38.340Z,96.70
2018-12-27T04:08:13.883Z,91.05
2018-12-27T04:08:49.444Z,93.35
2018-12-27T04:09:25.043Z,102.75
2018-12-27T04:10:00.743Z,97.78
2018-12-27T04:10:36.322Z,97.92
2018-12-27T04:11:11.864Z,97.47
2018-12-27T04:11:47.487Z,98.45
2018-12-27T04:12:23.024Z,100.22
2018-12-27T04:12:58.643Z,101.42
2018-12-27T04:13:34.401Z,101.00
2018-12-27T04:14:10.020Z,106.55
2018-12-27T04:14:45.760Z,104.43
2018-12-27T04:15:21.321Z,104.15
2018-12-27T04:15:56.753Z,111.72
2018-12-27T04:16:32.608Z,103.58
2018-12-27T04:17:08.043Z,108.12
2018-12-27T04:17:43.484Z,116.00
2018-12-27T04:18:18.914Z,109.72
2018-12-27T04:18:54.679Z,113.25
2018-12-27T04:19:31.772Z,114.90
2018-12-27T04:20:07.510Z,119.85
2018-12-27T04:20:42.968Z,102.62
2018-12-27T04:21:18.615Z,106.45
2018-12-27T04:21:54.048Z,107.47
2018-12-27T04:22:29.687Z,109.55
2018-12-27T04:23:05.199Z,110.88
2018-12-27T04:23:42.438Z,107.30
2018-12-27T04:24:20.469Z,111.55
2018-12-27T04:24:56.149Z,107.15
2018-12-27T04:25:32.491Z,109.65
2018-12-27T04:26:08.286Z,113.40
2018-12-27T04:26:43.858Z,102.40
2018-12-27T04:27:19.274Z,105.85
2018-12-27T04:27:54.814Z,100.95
2018-12-27T04:28:30.430Z,97.05
2018-12-27T04:29:06.150Z,104.58
2018-12-27T04:29:41.785Z,105.78
2018-12-27T04:30:17.587Z,92.33
2018-12-27T04:30:53.071Z,99.90
2018-12-27T04:31:29.009Z,98.97
2018-12-27T04:32:04.538Z,94.90
2018-12-27T04:32:41.296Z,101.58
2018-12-27T04:33:18.600Z,101.42
2018-12-27T04:33:54.639Z,103.45
2018-12-27T04:34:30.960Z,100.70
2018-12-27T04:35:06.713Z,96.02
2018-12-27T04:35:42.459Z,97.35
2018-12-27T04:36:18.383Z,84.83
2018-12-27T04:36:54.841Z,94.80
2018-12-27T04:37:30.298Z,92.85
2018-12-27T04:38:05.720Z,87.45
2018-12-27T04:38:41.414Z,80.42
2018-12-27T04:39:17.378Z,91.42
2018-12-27T04:39:52.967Z,96.15
2018-12-27T04:40:28.936Z,89.72
2018-12-27T04:41:04.599Z,96.40
2018-12-27T04:41:40.476Z,93.78
2018-12-27T04:42:16.501Z,92.72
2018-12-27T04:42:52.542Z,81.08
2018-12-27T04:43:28.267Z,87.62
2018-12-27T04:44:04.373Z,93.87
2018-12-27T04:44:40.229Z,75.45
2018-12-27T04:45:15.813Z,86.28
2018-12-27T04:45:51.446Z,89.50
2018-12-27T04:46:26.997Z,85.05
2018-12-27T04:47:02.387Z,83.82
2018-12-27T04:47:37.738Z,73.35
2018-12-27T04:48:13.167Z,73.35
2018-12-27T04:48:48.471Z,77.58
2018-12-27T04:49:24.074Z,78.22
2018-12-27T04:49:59.521Z,78.28
2018-12-27T04:50:34.978Z,84.10
2018-12-27T04:51:10.435Z,86.72
2018-12-27T04:51:46.025Z,81.42
2018-12-27T04:52:21.665Z,79.62
2018-12-27T04:52:57.022Z,79.27
2018-12-27T04:53:32.684Z,75.80
2018-12-27T04:54:08.273Z,80.15
2018-12-27T04:54:43.809Z,80.92
2018-12-27T04:55:19.230Z,76.17
2018-12-27T04:55:54.790Z,71.80
2018-12-27T04:56:30.344Z,76.70
2018-12-27T04:57:06.126Z,75.42
2018-12-27T04:57:41.572Z,71.47
2018-12-27T04:58:17.128Z,61.23
2018-12-27T04:58:52.446Z,70.50
2018-12-27T04:59:28.007Z,64.20
2018-12-27T05:00:03.584Z,67.15
2018-12-27T05:00:39.040Z,68.42
2018-12-27T05:01:14.463Z,68.10
2018-12-27T05:01:49.925Z,63.98
2018-12-27T05:02:26.593Z,65.35
2018-12-27T05:03:02.779Z,55.10
2018-12-27T05:03:38.736Z,63.10
2018-12-27T05:04:18.099Z,68.37
2018-12-27T05:04:51.590Z,66.80
2018-12-27T05:05:27.193Z,67.62
2018-12-27T05:06:02.842Z,73.25
2018-12-27T05:06:38.458Z,77.05
2018-12-27T05:07:13.935Z,66.87
2018-12-27T05:07:49.495Z,71.02
2018-12-27T05:08:24.970Z,76.00
2018-12-27T05:09:00.629Z,74.72
2018-12-27T05:09:36.131Z,75.72
2018-12-27T05:10:11.543Z,67.60
2018-12-27T05:10:47.331Z,72.65
2018-12-27T05:11:23.244Z,84.83
2018-12-27T05:11:58.680Z,71.47
2018-12-27T05:12:34.100Z,72.40
2018-12-27T05:13:09.503Z,66.57
2018-12-27T05:13:45.044Z,74.62
2018-12-27T05:14:20.600Z,74.20
2018-12-27T05:14:56.019Z,78.02
2018-12-27T05:15:31.725Z,70.15
2018-12-27T05:16:07.669Z,67.97
2018-12-27T05:16:43.130Z,76.20
2018-12-27T05:17:18.791Z,71.90
2018-12-27T05:17:54.354Z,70.67
2018-12-27T05:18:30.533Z,74.58
2018-12-27T05:19:05.869Z,78.05
2018-12-27T05:19:41.436Z,75.45
2018-12-27T05:20:16.949Z,71.17
2018-12-27T05:20:52.256Z,78.42
2018-12-27T05:21:28.088Z,75.05
2018-12-27T05:22:03.644Z,81.40
2018-12-27T05:22:39.084Z,83.37
2018-12-27T05:23:14.551Z,75.92
2018-12-27T05:23:50.043Z,79.17
2018-12-27T05:24:25.560Z,69.17
2018-12-27T05:25:01.707Z,72.12
2018-12-27T05:25:37.280Z,68.62
2018-12-27T05:26:12.690Z,74.00
2018-12-27T05:26:48.303Z,80.38
2018-12-27T05:27:23.935Z,73.37
2018-12-27T05:27:59.465Z,66.07
2018-12-27T05:28:34.912Z,76.55
2018-12-27T05:29:10.258Z,80.42
2018-12-27T05:29:45.780Z,74.75
2018-12-27T05:30:21.109Z,76.87
2018-12-27T05:30:56.960Z,73.45
2018-12-27T05:31:32.481Z,73.33
2018-12-27T05:32:07.806Z,71.28
2018-12-27T05:32:43.427Z,68.45
2018-12-27T05:33:18.919Z,76.40
2018-12-27T05:33:55.845Z,74.90
2018-12-27T05:34:31.361Z,72.03
2018-12-27T05:35:07.011Z,67.85
2018-12-27T05:35:42.556Z,69.65
2018-12-27T05:36:17.872Z,67.00
2018-12-27T05:36:53.414Z,74.25
2018-12-27T05:37:28.955Z,62.13
2018-12-27T05:38:04.562Z,74.05
2018-12-27T05:38:40.142Z,74.70
2018-12-27T05:39:15.650Z,79.03
2018-12-27T05:39:51.701Z,77.37
2018-12-27T05:40:27.058Z,71.50
2018-12-27T05:41:02.598Z,78.33
2018-12-27T05:41:38.282Z,78.80
2018-12-27T05:42:13.973Z,91.45
2018-12-27T05:42:50.366Z,84.95
2018-12-27T05:43:26.027Z,81.17
2018-12-27T05:44:01.351Z,87.20
2018-12-27T05:44:36.669Z,80.65
2018-12-27T05:45:12.245Z,78.62
2018-12-27T05:45:47.798Z,73.47
2018-12-27T05:46:23.386Z,76.35
2018-12-27T05:46:58.797Z,90.47
2018-12-27T05:47:34.446Z,86.90
2018-12-27T05:48:10.067Z,91.72
2018-12-27T05:48:45.678Z,99.15
2018-12-27T05:49:21.228Z,83.85
2018-12-27T05:49:56.787Z,95.35
2018-12-27T05:50:32.507Z,100.58
2018-12-27T05:51:08.040Z,93.42
2018-12-27T05:51:44.366Z,94.65
2018-12-27T05:52:20.007Z,92.30
2018-12-27T05:52:55.496Z,98.40
2018-12-27T05:53:30.755Z,94.40
2018-12-27T05:54:06.194Z,97.37
2018-12-27T05:54:41.735Z,102.40
2018-12-27T05:55:17.334Z,107.55
2018-12-27T05:55:52.835Z,105.30
2018-12-27T05:56:28.668Z,101.75
2018-12-27T05:57:04.491Z,91.32
2018-12-27T05:57:39.935Z,96.70
2018-12-27T05:58:15.645Z,122.15
2018-12-27T05:58:51.369Z,107.43
2018-12-27T05:59:27.063Z,110.88
2018-12-27T06:00:02.563Z,119.97
2018-12-27T06:00:38.222Z,94.72
2018-12-27T06:01:13.655Z,122.47
2018-12-27T06:01:49.155Z,129.53
2018-12-27T06:02:24.735Z,126.67
2018-12-27T06:03:00.236Z,115.97
2018-12-27T06:03:35.773Z,108.80
2018-12-27T06:04:11.199Z,117.10
2018-12-27T06:04:46.679Z,119.70
2018-12-27T06:05:22.179Z,119.53
2018-12-27T06:05:57.777Z,118.22
2018-12-27T06:06:33.218Z,127.50
2018-12-27T06:07:08.742Z,118.90
2018-12-27T06:07:44.378Z,96.32
2018-12-27T06:08:19.835Z,125.60
2018-12-27T06:08:55.441Z,113.97
2018-12-27T06:09:31.071Z,122.28
2018-12-27T06:10:06.913Z,130.47
2018-12-27T06:10:42.390Z,144.45
2018-12-27T06:11:17.809Z,132.57
2018-12-27T06:11:53.318Z,137.55
2018-12-27T06:12:28.841Z,148.02
2018-12-27T06:13:04.382Z,150.07
2018-12-27T06:13:39.824Z,133.72
2018-12-27T06:14:15.360Z,149.55
2018-12-27T06:14:50.913Z,139.35
2018-12-27T06:15:26.438Z,163.82
2018-12-27T06:16:01.976Z,144.07
2018-12-27T06:16:37.486Z,148.55
2018-12-27T06:17:13.167Z,145.28
2018-12-27T06:17:48.704Z,161.28
2018-12-27T06:18:24.327Z,167.15
2018-12-27T06:18:59.806Z,167.68
2018-12-27T06:19:35.259Z,172.20
2018-12-27T06:20:11.284Z,162.92
2018-12-27T06:20:46.975Z,165.18
2018-12-27T06:21:22.579Z,169.87
2018-12-27T06:21:58.130Z,200.00
2018-12-27T06:22:33.720Z,193.43
2018-12-27T06:23:09.130Z,158.68
2018-12-27T06:23:44.590Z,152.87
2018-12-27T06:24:20.049Z,164.10
2018-12-27T06:24:56.218Z,169.43
2018-12-27T06:25:31.723Z,174.25
2018-12-27T06:26:07.149Z,162.45
2018-12-27T06:26:42.696Z,147.85
2018-12-27T06:27:18.128Z,168.80
2018-12-27T06:27:55.268Z,162.85
2018-12-27T06:28:30.904Z,164.00
2018-12-27T06:29:06.779Z,153.12
2018-12-27T06:29:42.159Z,158.90
2018-12-27T06:30:17.735Z,185.37
2018-12-27T06:30:53.382Z,172.05
2018-12-27T06:31:28.910Z,189.62
2018-12-27T06:32:04.625Z,151.02
2018-12-27T06:32:40.151Z,167.85
2018-12-27T06:33:15.872Z,187.88
2018-12-27T06:33:51.872Z,152.43
2018-12-27T06:34:28.087Z,148.05
2018-12-27T06:35:03.742Z,159.32
2018-12-27T06:35:39.258Z,146.10
2018-12-27T06:36:15.094Z,156.78
2018-12-27T06:36:50.537Z,165.18
2018-12-27T06:37:26.063Z,183.25
2018-12-27T06:38:01.462Z,125.95
2018-12-27T06:38:37.027Z,137.15
2018-12-27T06:39:12.461Z,181.57
2018-12-27T06:39:47.897Z,168.87
2018-12-27T06:40:23.346Z,154.40
2018-12-27T06:40:59.263Z,159.45
2018-12-27T06:41:34.852Z,176.18
2018-12-27T06:42:10.228Z,204.50
2018-12-27T06:42:45.748Z,176.65
2018-12-27T06:43:21.297Z,153.68
2018-12-27T06:43:56.733Z,185.18
2018-12-27T06:44:32.148Z,202.62
2018-12-27T06:45:07.562Z,174.87
2018-12-27T06:45:43.043Z,190.25
2018-12-27T06:46:18.432Z,155.22
2018-12-27T06:46:54.070Z,135.80
2018-12-27T06:47:29.618Z,136.07
2018-12-27T06:48:05.730Z,145.22
2018-12-27T06:48:41.299Z,135.97
2018-12-27T06:49:16.799Z,173.05
2018-12-27T06:49:52.163Z,185.28
2018-12-27T06:50:27.712Z,170.20
2018-12-27T06:51:03.398Z,167.15
2018-12-27T06:51:38.749Z,169.25
2018-12-27T06:52:14.263Z,170.45
2018-12-27T06:52:49.894Z,181.78
2018-12-27T06:53:25.446Z,194.10
2018-12-27T06:54:00.991Z,151.10
2018-12-27T06:54:36.386Z,118.15
2018-12-27T06:55:12.384Z,141.10
2018-12-27T06:55:47.888Z,127.82
2018-12-27T06:56:23.421Z,143.75
2018-12-27T06:56:58.954Z,181.95
2018-12-27T06:57:34.449Z,176.80
2018-12-27T06:58:10.023Z,155.37
2018-12-27T06:58:45.550Z,153.95
2018-12-27T06:59:21.224Z,117.42
2018-12-27T06:59:56.836Z,142.72
2018-12-27T07:00:32.487Z,152.43
2018-12-27T07:01:07.974Z,170.60
2018-12-27T07:01:43.505Z,140.50
2018-12-27T07:02:19.228Z,146.10
2018-12-27T07:02:54.880Z,158.47
2018-12-27T07:03:30.443Z,136.85
2018-12-27T07:04:05.864Z,173.62
2018-12-27T07:04:48.758Z,170.00
2018-12-27T07:05:18.455Z,200.13
2018-12-27T07:05:53.772Z,155.95
2018-12-27T07:06:29.337Z,180.82
2018-12-27T07:07:04.850Z,181.10
2018-12-27T07:07:40.266Z,171.70
2018-12-27T07:08:15.866Z,194.70
2018-12-27T07:08:51.346Z,152.85
2018-12-27T07:09:26.980Z,166.30
2018-12-27T07:10:03.048Z,198.15
2018-12-27T07:10:38.467Z,190.73
2018-12-27T07:11:14.088Z,182.30
2018-12-27T07:11:49.606Z,170.77
2018-12-27T07:12:25.071Z,137.92
2018-12-27T07:13:00.502Z,137.57
2018-12-27T07:13:35.966Z,141.03
2018-12-27T07:14:11.568Z,144.57
2018-12-27T07:14:47.098Z,139.28
2018-12-27T07:15:22.622Z,142.28
2018-12-27T07:15:58.245Z,160.90
2018-12-27T07:16:34.082Z,138.03
2018-12-27T07:17:09.428Z,137.72
2018-12-27T07:17:44.738Z,144.25
2018-12-27T07:18:20.298Z,172.15
2018-12-27T07:18:55.868Z,176.00
2018-12-27T07:19:31.746Z,158.90
2018-12-27T07:20:07.445Z,175.97
2018-12-27T07:20:43.021Z,184.60
2018-12-27T07:21:18.696Z,148.75
2018-12-27T07:21:54.227Z,165.03
2018-12-27T07:22:30.183Z,179.38
2018-12-27T07:23:06.117Z,179.20
2018-12-27T07:23:41.653Z,146.50
2018-12-27T07:24:17.166Z,154.40
2018-12-27T07:24:52.586Z,167.70
2018-12-27T07:25:28.018Z,175.72
2018-12-27T07:26:03.660Z,158.32
2018-12-27T07:26:39.131Z,166.43
2018-12-27T07:27:14.708Z,165.75
2018-12-27T07:27:50.184Z,130.57
2018-12-27T07:28:25.707Z,154.87
2018-12-27T07:29:01.294Z,146.18
2018-12-27T07:29:36.847Z,158.05
2018-12-27T07:30:12.875Z,141.10
2018-12-27T07:30:48.503Z,153.47
2018-12-27T07:31:24.976Z,141.95
2018-12-27T07:32:00.410Z,169.40
2018-12-27T07:32:35.963Z,157.05
2018-12-27T07:33:11.459Z,143.17
2018-12-27T07:33:46.919Z,152.68
2018-12-27T07:34:22.486Z,135.93
2018-12-27T07:34:57.995Z,148.15
2018-12-27T07:35:33.387Z,188.12